sensor_id;sensor_type;location;lat;lon;timestamp;P1;durP1;ratioP1;P2;durP2;ratioP2
842;SDS011;407;48.884;9.126;2023-04-03T00:01:13;7.30;;;2.27;;
842;SDS011;407;48.884;9.126;2023-04-03T00:03:39;7.10;;;2.20;;
842;SDS011;407;48.884;9.126;2023-04-03T00:06:06;7.90;;;2.47;;
842;SDS011;407;48.884;9.126;2023-04-03T00:08:35;9.40;;;2.40;;
842;SDS011;407;48.884;9.126;2023-04-03T00:11:02;7.20;;;2.40;;
842;SDS011;407;48.884;9.126;2023-04-03T00:13:28;6.93;;;2.00;;
842;SDS011;407;48.884;9.126;2023-04-03T00:15:55;6.80;;;2.20;;
842;SDS011;407;48.884;9.126;2023-04-03T00:18:20;7.15;;;2.40;;
842;SDS011;407;48.884;9.126;2023-04-03T00:20:46;6.80;;;2.13;;
842;SDS011;407;48.884;9.126;2023-04-03T00:23:12;6.20;;;2.20;;
842;SDS011;407;48.884;9.126;2023-04-03T00:25:38;7.17;;;2.23;;
842;SDS011;407;48.884;9.126;2023-04-03T00:28:04;8.27;;;2.20;;
842;SDS011;407;48.884;9.126;2023-04-03T00:30:30;6.80;;;2.10;;
842;SDS011;407;48.884;9.126;2023-04-03T00:32:57;6.95;;;2.20;;
842;SDS011;407;48.884;9.126;2023-04-03T00:35:23;7.00;;;1.90;;
842;SDS011;407;48.884;9.126;2023-04-03T00:37:53;6.80;;;2.00;;
842;SDS011;407;48.884;9.126;2023-04-03T00:40:21;7.82;;;2.05;;
842;SDS011;407;48.884;9.126;2023-04-03T00:42:54;7.10;;;2.10;;
842;SDS011;407;48.884;9.126;2023-04-03T00:45:44;7.80;;;1.92;;
842;SDS011;407;48.884;9.126;2023-04-03T00:48:14;6.10;;;1.90;;
842;SDS011;407;48.884;9.126;2023-04-03T00:50:45;6.68;;;2.10;;
842;SDS011;407;48.884;9.126;2023-04-03T00:53:12;6.70;;;2.00;;
842;SDS011;407;48.884;9.126;2023-04-03T00:55:43;6.30;;;1.90;;
842;SDS011;407;48.884;9.126;2023-04-03T00:58:10;8.63;;;2.40;;
842;SDS011;407;48.884;9.126;2023-04-03T01:00:38;7.05;;;2.42;;
842;SDS011;407;48.884;9.126;2023-04-03T01:03:08;8.15;;;2.67;;
842;SDS011;407;48.884;9.126;2023-04-03T01:05:33;6.60;;;2.27;;
842;SDS011;407;48.884;9.126;2023-04-03T01:07:59;5.90;;;1.90;;
842;SDS011;407;48.884;9.126;2023-04-03T01:10:25;6.20;;;2.00;;
842;SDS011;407;48.884;9.126;2023-04-03T01:12:51;8.10;;;2.47;;
842;SDS011;407;48.884;9.126;2023-04-03T01:15:26;8.50;;;2.10;;
842;SDS011;407;48.884;9.126;2023-04-03T01:17:59;7.45;;;2.30;;
842;SDS011;407;48.884;9.126;2023-04-03T01:23:12;6.53;;;2.13;;
842;SDS011;407;48.884;9.126;2023-04-03T01:26:02;5.95;;;2.15;;
842;SDS011;407;48.884;9.126;2023-04-03T01:28:29;8.40;;;2.00;;
842;SDS011;407;48.884;9.126;2023-04-03T01:31:02;6.22;;;1.95;;
842;SDS011;407;48.884;9.126;2023-04-03T01:33:51;8.57;;;2.30;;
842;SDS011;407;48.884;9.126;2023-04-03T01:36:18;6.55;;;2.42;;
842;SDS011;407;48.884;9.126;2023-04-03T01:38:52;8.23;;;2.53;;
842;SDS011;407;48.884;9.126;2023-04-03T01:41:18;8.63;;;2.80;;
842;SDS011;407;48.884;9.126;2023-04-03T01:43:45;7.25;;;2.00;;
842;SDS011;407;48.884;9.126;2023-04-03T01:46:12;7.35;;;2.55;;
842;SDS011;407;48.884;9.126;2023-04-03T01:48:38;6.63;;;2.50;;
842;SDS011;407;48.884;9.126;2023-04-03T01:51:03;6.30;;;2.30;;
842;SDS011;407;48.884;9.126;2023-04-03T01:53:29;8.27;;;2.60;;
842;SDS011;407;48.884;9.126;2023-04-03T01:55:55;6.70;;;1.90;;
842;SDS011;407;48.884;9.126;2023-04-03T01:58:20;8.07;;;2.30;;
842;SDS011;407;48.884;9.126;2023-04-03T02:00:46;7.00;;;2.10;;
842;SDS011;407;48.884;9.126;2023-04-03T02:03:12;8.43;;;3.07;;
842;SDS011;407;48.884;9.126;2023-04-03T02:05:38;8.40;;;2.22;;
842;SDS011;407;48.884;9.126;2023-04-03T02:08:03;7.25;;;2.90;;
842;SDS011;407;48.884;9.126;2023-04-03T02:10:29;6.07;;;2.13;;
842;SDS011;407;48.884;9.126;2023-04-03T02:12:55;8.00;;;2.80;;
842;SDS011;407;48.884;9.126;2023-04-03T02:15:20;8.52;;;2.88;;
842;SDS011;407;48.884;9.126;2023-04-03T02:17:46;7.40;;;2.40;;
842;SDS011;407;48.884;9.126;2023-04-03T02:20:11;7.10;;;2.47;;
842;SDS011;407;48.884;9.126;2023-04-03T02:22:39;7.55;;;2.80;;
842;SDS011;407;48.884;9.126;2023-04-03T02:25:05;6.90;;;2.20;;
842;SDS011;407;48.884;9.126;2023-04-03T02:27:31;6.70;;;2.15;;
842;SDS011;407;48.884;9.126;2023-04-03T02:29:56;9.60;;;2.30;;
842;SDS011;407;48.884;9.126;2023-04-03T02:32:22;6.60;;;2.00;;
842;SDS011;407;48.884;9.126;2023-04-03T02:34:48;5.55;;;1.90;;
842;SDS011;407;48.884;9.126;2023-04-03T02:37:13;5.95;;;1.83;;
842;SDS011;407;48.884;9.126;2023-04-03T02:39:39;7.17;;;2.20;;
842;SDS011;407;48.884;9.126;2023-04-03T02:42:05;7.90;;;1.97;;
842;SDS011;407;48.884;9.126;2023-04-03T02:44:30;8.80;;;2.30;;
842;SDS011;407;48.884;9.126;2023-04-03T02:46:56;7.60;;;2.60;;
842;SDS011;407;48.884;9.126;2023-04-03T02:49:22;8.80;;;2.30;;
842;SDS011;407;48.884;9.126;2023-04-03T02:51:47;5.85;;;1.85;;
842;SDS011;407;48.884;9.126;2023-04-03T02:54:13;6.57;;;2.03;;
842;SDS011;407;48.884;9.126;2023-04-03T02:56:40;7.07;;;2.08;;
842;SDS011;407;48.884;9.126;2023-04-03T02:59:06;6.00;;;1.90;;
842;SDS011;407;48.884;9.126;2023-04-03T03:01:31;6.50;;;2.40;;
842;SDS011;407;48.884;9.126;2023-04-03T03:03:58;6.83;;;2.80;;
842;SDS011;407;48.884;9.126;2023-04-03T03:06:25;8.23;;;2.45;;
842;SDS011;407;48.884;9.126;2023-04-03T03:08:50;7.77;;;2.20;;
842;SDS011;407;48.884;9.126;2023-04-03T03:11:16;7.60;;;2.43;;
842;SDS011;407;48.884;9.126;2023-04-03T03:13:41;9.35;;;2.95;;
842;SDS011;407;48.884;9.126;2023-04-03T03:16:07;8.83;;;3.03;;
842;SDS011;407;48.884;9.126;2023-04-03T03:18:33;6.80;;;2.13;;
842;SDS011;407;48.884;9.126;2023-04-03T03:21:00;7.68;;;2.65;;
842;SDS011;407;48.884;9.126;2023-04-03T03:23:28;7.70;;;2.00;;
842;SDS011;407;48.884;9.126;2023-04-03T03:25:56;6.55;;;2.08;;
842;SDS011;407;48.884;9.126;2023-04-03T03:28:23;6.35;;;2.33;;
842;SDS011;407;48.884;9.126;2023-04-03T03:30:49;8.98;;;3.10;;
842;SDS011;407;48.884;9.126;2023-04-03T03:33:15;7.05;;;2.40;;
842;SDS011;407;48.884;9.126;2023-04-03T03:35:42;6.43;;;2.40;;
842;SDS011;407;48.884;9.126;2023-04-03T03:38:08;5.40;;;1.80;;
842;SDS011;407;48.884;9.126;2023-04-03T03:40:34;6.72;;;2.22;;
842;SDS011;407;48.884;9.126;2023-04-03T03:43:00;6.43;;;1.90;;
842;SDS011;407;48.884;9.126;2023-04-03T03:45:26;11.17;;;2.50;;
842;SDS011;407;48.884;9.126;2023-04-03T03:47:53;6.93;;;2.25;;
842;SDS011;407;48.884;9.126;2023-04-03T03:50:18;9.80;;;2.20;;
842;SDS011;407;48.884;9.126;2023-04-03T03:52:44;7.97;;;2.60;;
842;SDS011;407;48.884;9.126;2023-04-03T03:55:10;7.13;;;2.33;;
842;SDS011;407;48.884;9.126;2023-04-03T03:57:36;6.50;;;2.30;;
842;SDS011;407;48.884;9.126;2023-04-03T04:00:02;6.40;;;2.28;;
842;SDS011;407;48.884;9.126;2023-04-03T04:02:29;8.90;;;2.30;;
842;SDS011;407;48.884;9.126;2023-04-03T04:04:55;8.02;;;2.75;;
842;SDS011;407;48.884;9.126;2023-04-03T04:07:20;7.88;;;2.40;;
842;SDS011;407;48.884;9.126;2023-04-03T04:09:46;6.28;;;2.22;;
842;SDS011;407;48.884;9.126;2023-04-03T04:12:12;7.20;;;2.50;;
842;SDS011;407;48.884;9.126;2023-04-03T04:14:37;7.40;;;2.40;;
842;SDS011;407;48.884;9.126;2023-04-03T04:17:03;6.13;;;2.10;;
842;SDS011;407;48.884;9.126;2023-04-03T04:19:28;8.43;;;2.97;;
842;SDS011;407;48.884;9.126;2023-04-03T04:21:54;8.30;;;2.70;;
842;SDS011;407;48.884;9.126;2023-04-03T04:24:19;6.00;;;2.03;;
842;SDS011;407;48.884;9.126;2023-04-03T04:26:45;8.60;;;2.88;;
842;SDS011;407;48.884;9.126;2023-04-03T04:29:11;6.27;;;2.57;;
842;SDS011;407;48.884;9.126;2023-04-03T04:31:36;6.88;;;2.13;;
842;SDS011;407;48.884;9.126;2023-04-03T04:34:02;7.20;;;2.30;;
842;SDS011;407;48.884;9.126;2023-04-03T04:36:27;8.82;;;2.40;;
842;SDS011;407;48.884;9.126;2023-04-03T04:38:53;5.80;;;2.00;;
842;SDS011;407;48.884;9.126;2023-04-03T04:41:22;6.97;;;2.10;;
842;SDS011;407;48.884;9.126;2023-04-03T04:43:48;6.30;;;2.50;;
842;SDS011;407;48.884;9.126;2023-04-03T04:46:14;6.20;;;1.90;;
842;SDS011;407;48.884;9.126;2023-04-03T04:48:40;7.40;;;2.60;;
842;SDS011;407;48.884;9.126;2023-04-03T04:51:06;6.65;;;2.33;;
842;SDS011;407;48.884;9.126;2023-04-03T04:53:32;6.53;;;2.00;;
842;SDS011;407;48.884;9.126;2023-04-03T04:55:58;7.00;;;2.30;;
842;SDS011;407;48.884;9.126;2023-04-03T04:58:23;8.43;;;2.40;;
842;SDS011;407;48.884;9.126;2023-04-03T05:00:58;8.07;;;2.70;;
842;SDS011;407;48.884;9.126;2023-04-03T05:03:41;7.07;;;2.63;;
842;SDS011;407;48.884;9.126;2023-04-03T05:06:07;6.38;;;2.20;;
842;SDS011;407;48.884;9.126;2023-04-03T05:08:32;7.10;;;2.60;;
842;SDS011;407;48.884;9.126;2023-04-03T05:10:58;8.27;;;2.40;;
842;SDS011;407;48.884;9.126;2023-04-03T05:13:23;7.30;;;2.50;;
842;SDS011;407;48.884;9.126;2023-04-03T05:15:49;5.80;;;1.80;;
842;SDS011;407;48.884;9.126;2023-04-03T05:18:15;7.90;;;2.30;;
842;SDS011;407;48.884;9.126;2023-04-03T05:20:40;7.97;;;2.10;;
842;SDS011;407;48.884;9.126;2023-04-03T05:23:08;7.78;;;2.00;;
842;SDS011;407;48.884;9.126;2023-04-03T05:25:37;5.97;;;2.13;;
842;SDS011;407;48.884;9.126;2023-04-03T05:28:03;6.70;;;2.50;;
842;SDS011;407;48.884;9.126;2023-04-03T05:30:28;6.73;;;2.03;;
842;SDS011;407;48.884;9.126;2023-04-03T05:32:54;6.50;;;1.90;;
842;SDS011;407;48.884;9.126;2023-04-03T05:35:20;6.55;;;1.83;;
842;SDS011;407;48.884;9.126;2023-04-03T05:37:46;11.80;;;2.40;;
842;SDS011;407;48.884;9.126;2023-04-03T05:40:12;6.60;;;2.00;;
842;SDS011;407;48.884;9.126;2023-04-03T05:42:38;8.38;;;2.40;;
842;SDS011;407;48.884;9.126;2023-04-03T05:45:04;8.80;;;2.20;;
842;SDS011;407;48.884;9.126;2023-04-03T05:47:30;7.40;;;2.35;;
842;SDS011;407;48.884;9.126;2023-04-03T05:49:56;6.80;;;2.40;;
842;SDS011;407;48.884;9.126;2023-04-03T05:55:00;7.20;;;2.30;;
842;SDS011;407;48.884;9.126;2023-04-03T05:57:26;6.00;;;1.97;;
842;SDS011;407;48.884;9.126;2023-04-03T05:59:51;6.93;;;2.30;;
842;SDS011;407;48.884;9.126;2023-04-03T06:02:18;6.30;;;2.00;;
842;SDS011;407;48.884;9.126;2023-04-03T06:04:46;9.30;;;2.33;;
842;SDS011;407;48.884;9.126;2023-04-03T06:07:13;6.50;;;2.20;;
842;SDS011;407;48.884;9.126;2023-04-03T06:09:43;6.68;;;2.10;;
842;SDS011;407;48.884;9.126;2023-04-03T06:12:08;7.30;;;2.50;;
842;SDS011;407;48.884;9.126;2023-04-03T06:14:34;7.28;;;2.50;;
842;SDS011;407;48.884;9.126;2023-04-03T06:17:00;7.63;;;2.50;;
842;SDS011;407;48.884;9.126;2023-04-03T06:19:27;6.90;;;2.35;;
842;SDS011;407;48.884;9.126;2023-04-03T06:21:52;8.90;;;2.58;;
842;SDS011;407;48.884;9.126;2023-04-03T06:24:18;10.10;;;3.30;;
842;SDS011;407;48.884;9.126;2023-04-03T06:26:46;7.35;;;2.30;;
842;SDS011;407;48.884;9.126;2023-04-03T06:29:12;10.00;;;3.00;;
842;SDS011;407;48.884;9.126;2023-04-03T06:31:37;10.95;;;3.50;;
842;SDS011;407;48.884;9.126;2023-04-03T06:34:05;11.20;;;3.75;;
842;SDS011;407;48.884;9.126;2023-04-03T06:36:32;6.90;;;2.50;;
842;SDS011;407;48.884;9.126;2023-04-03T06:38:59;6.95;;;2.20;;
842;SDS011;407;48.884;9.126;2023-04-03T06:41:24;7.40;;;2.50;;
842;SDS011;407;48.884;9.126;2023-04-03T06:43:51;7.10;;;2.20;;
842;SDS011;407;48.884;9.126;2023-04-03T06:46:17;6.10;;;1.90;;
842;SDS011;407;48.884;9.126;2023-04-03T06:48:45;8.30;;;2.50;;
842;SDS011;407;48.884;9.126;2023-04-03T06:51:21;9.80;;;2.88;;
842;SDS011;407;48.884;9.126;2023-04-03T06:53:52;8.90;;;2.13;;
842;SDS011;407;48.884;9.126;2023-04-03T06:56:19;7.07;;;2.45;;
842;SDS011;407;48.884;9.126;2023-04-03T06:58:46;7.80;;;2.65;;
842;SDS011;407;48.884;9.126;2023-04-03T07:01:12;7.68;;;2.30;;
842;SDS011;407;48.884;9.126;2023-04-03T07:03:39;6.50;;;2.00;;
842;SDS011;407;48.884;9.126;2023-04-03T07:06:05;7.33;;;2.20;;
842;SDS011;407;48.884;9.126;2023-04-03T07:08:33;10.40;;;2.70;;
842;SDS011;407;48.884;9.126;2023-04-03T07:10:59;8.82;;;2.65;;
842;SDS011;407;48.884;9.126;2023-04-03T07:13:25;8.00;;;2.78;;
842;SDS011;407;48.884;9.126;2023-04-03T07:15:51;7.60;;;2.80;;
842;SDS011;407;48.884;9.126;2023-04-03T07:18:17;7.78;;;2.95;;
842;SDS011;407;48.884;9.126;2023-04-03T07:20:43;7.57;;;3.00;;
842;SDS011;407;48.884;9.126;2023-04-03T07:23:10;7.80;;;2.08;;
842;SDS011;407;48.884;9.126;2023-04-03T07:25:36;7.22;;;2.58;;
842;SDS011;407;48.884;9.126;2023-04-03T07:28:02;8.00;;;2.45;;
842;SDS011;407;48.884;9.126;2023-04-03T07:30:28;7.28;;;2.70;;
842;SDS011;407;48.884;9.126;2023-04-03T07:32:54;7.50;;;2.70;;
842;SDS011;407;48.884;9.126;2023-04-03T07:35:20;9.67;;;2.80;;
842;SDS011;407;48.884;9.126;2023-04-03T07:37:45;8.30;;;2.47;;
842;SDS011;407;48.884;9.126;2023-04-03T07:40:11;6.90;;;2.20;;
842;SDS011;407;48.884;9.126;2023-04-03T07:42:37;7.25;;;2.50;;
842;SDS011;407;48.884;9.126;2023-04-03T07:45:03;6.50;;;2.17;;
842;SDS011;407;48.884;9.126;2023-04-03T07:47:29;6.20;;;2.00;;
842;SDS011;407;48.884;9.126;2023-04-03T07:49:56;7.25;;;2.30;;
842;SDS011;407;48.884;9.126;2023-04-03T07:52:22;7.80;;;2.50;;
842;SDS011;407;48.884;9.126;2023-04-03T07:54:49;7.47;;;2.80;;
842;SDS011;407;48.884;9.126;2023-04-03T07:57:14;6.93;;;2.65;;
842;SDS011;407;48.884;9.126;2023-04-03T07:59:40;8.23;;;2.50;;
842;SDS011;407;48.884;9.126;2023-04-03T08:02:09;13.00;;;2.28;;
842;SDS011;407;48.884;9.126;2023-04-03T08:04:35;6.60;;;2.30;;
842;SDS011;407;48.884;9.126;2023-04-03T08:07:01;7.67;;;2.70;;
842;SDS011;407;48.884;9.126;2023-04-03T08:09:26;7.18;;;2.05;;
842;SDS011;407;48.884;9.126;2023-04-03T08:11:52;7.23;;;2.23;;
842;SDS011;407;48.884;9.126;2023-04-03T08:14:18;7.28;;;2.28;;
842;SDS011;407;48.884;9.126;2023-04-03T08:16:46;7.47;;;2.40;;
842;SDS011;407;48.884;9.126;2023-04-03T08:19:12;8.52;;;2.38;;
842;SDS011;407;48.884;9.126;2023-04-03T08:21:40;7.40;;;2.70;;
842;SDS011;407;48.884;9.126;2023-04-03T08:24:07;7.22;;;2.50;;
842;SDS011;407;48.884;9.126;2023-04-03T08:26:33;8.05;;;2.30;;
842;SDS011;407;48.884;9.126;2023-04-03T08:28:59;8.20;;;2.45;;
842;SDS011;407;48.884;9.126;2023-04-03T08:31:24;7.70;;;2.60;;
842;SDS011;407;48.884;9.126;2023-04-03T08:33:50;6.80;;;2.40;;
842;SDS011;407;48.884;9.126;2023-04-03T08:36:18;7.25;;;2.70;;
842;SDS011;407;48.884;9.126;2023-04-03T08:38:45;7.97;;;2.80;;
842;SDS011;407;48.884;9.126;2023-04-03T08:46:38;7.88;;;2.78;;
842;SDS011;407;48.884;9.126;2023-04-03T08:49:26;8.57;;;2.58;;
842;SDS011;407;48.884;9.126;2023-04-03T08:52:09;10.07;;;2.70;;
842;SDS011;407;48.884;9.126;2023-04-03T08:54:41;8.95;;;3.33;;
842;SDS011;407;48.884;9.126;2023-04-03T08:57:18;9.77;;;2.40;;
842;SDS011;407;48.884;9.126;2023-04-03T08:59:51;8.40;;;3.00;;
842;SDS011;407;48.884;9.126;2023-04-03T09:02:51;8.00;;;2.80;;
842;SDS011;407;48.884;9.126;2023-04-03T09:05:13;7.53;;;2.90;;
842;SDS011;407;48.884;9.126;2023-04-03T09:07:44;7.90;;;2.70;;
842;SDS011;407;48.884;9.126;2023-04-03T09:10:15;9.93;;;3.50;;
842;SDS011;407;48.884;9.126;2023-04-03T09:12:45;10.70;;;3.58;;
842;SDS011;407;48.884;9.126;2023-04-03T09:15:24;9.82;;;3.10;;
842;SDS011;407;48.884;9.126;2023-04-03T09:17:59;9.68;;;2.90;;
842;SDS011;407;48.884;9.126;2023-04-03T09:23:26;10.17;;;2.90;;
842;SDS011;407;48.884;9.126;2023-04-03T09:25:59;6.97;;;2.20;;
842;SDS011;407;48.884;9.126;2023-04-03T09:28:34;6.57;;;2.67;;
842;SDS011;407;48.884;9.126;2023-04-03T09:31:11;7.10;;;2.40;;
842;SDS011;407;48.884;9.126;2023-04-03T09:33:39;9.43;;;2.60;;
842;SDS011;407;48.884;9.126;2023-04-03T09:36:05;5.95;;;1.95;;
842;SDS011;407;48.884;9.126;2023-04-03T09:38:32;8.30;;;2.50;;
842;SDS011;407;48.884;9.126;2023-04-03T09:41:04;6.33;;;2.00;;
842;SDS011;407;48.884;9.126;2023-04-03T09:43:33;10.65;;;2.72;;
842;SDS011;407;48.884;9.126;2023-04-03T09:48:57;7.38;;;1.70;;
842;SDS011;407;48.884;9.126;2023-04-03T09:51:28;5.90;;;1.75;;
842;SDS011;407;48.884;9.126;2023-04-03T09:53:56;7.40;;;2.13;;
842;SDS011;407;48.884;9.126;2023-04-03T09:58:52;6.38;;;1.90;;
842;SDS011;407;48.884;9.126;2023-04-03T10:04:05;7.18;;;1.80;;
842;SDS011;407;48.884;9.126;2023-04-03T10:06:40;5.40;;;1.60;;
842;SDS011;407;48.884;9.126;2023-04-03T10:09:20;5.55;;;1.80;;
842;SDS011;407;48.884;9.126;2023-04-03T10:14:41;5.85;;;1.45;;
842;SDS011;407;48.884;9.126;2023-04-03T10:17:35;7.82;;;1.67;;
842;SDS011;407;48.884;9.126;2023-04-03T10:26:05;5.40;;;1.40;;
842;SDS011;407;48.884;9.126;2023-04-03T10:28:52;6.10;;;1.90;;
842;SDS011;407;48.884;9.126;2023-04-03T10:31:38;5.50;;;1.50;;
842;SDS011;407;48.884;9.126;2023-04-03T10:34:23;5.88;;;1.60;;
842;SDS011;407;48.884;9.126;2023-04-03T10:51:27;5.80;;;1.70;;
842;SDS011;407;48.884;9.126;2023-04-03T10:54:19;6.53;;;1.43;;
842;SDS011;407;48.884;9.126;2023-04-03T10:56:53;6.35;;;1.90;;
842;SDS011;407;48.884;9.126;2023-04-03T10:59:28;5.70;;;1.42;;
842;SDS011;407;48.884;9.126;2023-04-03T11:02:04;6.35;;;1.83;;
842;SDS011;407;48.884;9.126;2023-04-03T11:04:37;7.18;;;1.25;;
842;SDS011;407;48.884;9.126;2023-04-03T11:07:15;6.20;;;1.50;;
842;SDS011;407;48.884;9.126;2023-04-03T11:09:55;5.63;;;1.35;;
842;SDS011;407;48.884;9.126;2023-04-03T11:13:12;6.72;;;1.42;;
842;SDS011;407;48.884;9.126;2023-04-03T11:15:17;7.00;;;1.60;;
842;SDS011;407;48.884;9.126;2023-04-03T11:17:55;7.13;;;1.60;;
842;SDS011;407;48.884;9.126;2023-04-03T11:20:30;9.63;;;2.10;;
842;SDS011;407;48.884;9.126;2023-04-03T11:23:08;5.97;;;1.60;;
842;SDS011;407;48.884;9.126;2023-04-03T11:25:50;6.32;;;1.70;;
842;SDS011;407;48.884;9.126;2023-04-03T11:28:18;7.93;;;1.60;;
842;SDS011;407;48.884;9.126;2023-04-03T11:31:02;6.30;;;1.80;;
842;SDS011;407;48.884;9.126;2023-04-03T11:36:30;6.30;;;1.40;;
842;SDS011;407;48.884;9.126;2023-04-03T11:39:00;7.93;;;1.50;;
842;SDS011;407;48.884;9.126;2023-04-03T11:41:35;9.23;;;1.90;;
842;SDS011;407;48.884;9.126;2023-04-03T11:44:03;6.20;;;1.70;;
842;SDS011;407;48.884;9.126;2023-04-03T12:04:12;5.72;;;1.65;;
842;SDS011;407;48.884;9.126;2023-04-03T12:19:02;7.20;;;1.98;;
842;SDS011;407;48.884;9.126;2023-04-03T12:26:42;5.90;;;1.52;;
842;SDS011;407;48.884;9.126;2023-04-03T12:48:22;9.60;;;1.90;;
842;SDS011;407;48.884;9.126;2023-04-03T12:50:51;6.40;;;1.70;;
842;SDS011;407;48.884;9.126;2023-04-03T12:53:27;6.85;;;1.60;;
842;SDS011;407;48.884;9.126;2023-04-03T12:56:18;6.47;;;1.85;;
842;SDS011;407;48.884;9.126;2023-04-03T12:58:44;10.75;;;3.05;;
842;SDS011;407;48.884;9.126;2023-04-03T13:01:11;7.65;;;2.03;;
842;SDS011;407;48.884;9.126;2023-04-03T13:03:39;6.93;;;2.05;;
842;SDS011;407;48.884;9.126;2023-04-03T13:06:17;7.00;;;1.90;;
842;SDS011;407;48.884;9.126;2023-04-03T13:08:48;6.72;;;2.10;;
842;SDS011;407;48.884;9.126;2023-04-03T13:11:36;6.20;;;1.95;;
842;SDS011;407;48.884;9.126;2023-04-03T13:14:14;6.20;;;1.70;;
842;SDS011;407;48.884;9.126;2023-04-03T13:16:42;7.10;;;1.90;;
842;SDS011;407;48.884;9.126;2023-04-03T13:19:25;7.38;;;2.20;;
842;SDS011;407;48.884;9.126;2023-04-03T13:21:54;7.55;;;2.03;;
842;SDS011;407;48.884;9.126;2023-04-03T13:24:35;5.50;;;1.48;;
842;SDS011;407;48.884;9.126;2023-04-03T13:27:03;7.47;;;1.70;;
842;SDS011;407;48.884;9.126;2023-04-03T13:29:31;8.30;;;1.58;;
842;SDS011;407;48.884;9.126;2023-04-03T13:32:01;5.20;;;1.50;;
842;SDS011;407;48.884;9.126;2023-04-03T13:34:34;8.15;;;2.60;;
842;SDS011;407;48.884;9.126;2023-04-03T13:37:06;5.78;;;1.65;;
842;SDS011;407;48.884;9.126;2023-04-03T13:39:37;5.47;;;1.60;;
842;SDS011;407;48.884;9.126;2023-04-03T13:42:17;6.40;;;1.85;;
842;SDS011;407;48.884;9.126;2023-04-03T13:44:48;8.02;;;2.10;;
842;SDS011;407;48.884;9.126;2023-04-03T13:47:16;11.77;;;3.30;;
842;SDS011;407;48.884;9.126;2023-04-03T13:49:46;13.52;;;3.35;;
842;SDS011;407;48.884;9.126;2023-04-03T13:52:29;7.43;;;1.88;;
842;SDS011;407;48.884;9.126;2023-04-03T14:00:25;7.45;;;2.30;;
842;SDS011;407;48.884;9.126;2023-04-03T14:02:59;7.63;;;1.98;;
842;SDS011;407;48.884;9.126;2023-04-03T14:05:25;9.27;;;2.25;;
842;SDS011;407;48.884;9.126;2023-04-03T14:07:52;6.10;;;1.77;;
842;SDS011;407;48.884;9.126;2023-04-03T14:10:19;6.32;;;1.80;;
842;SDS011;407;48.884;9.126;2023-04-03T14:12:45;6.57;;;1.40;;
842;SDS011;407;48.884;9.126;2023-04-03T14:15:22;7.57;;;1.70;;
842;SDS011;407;48.884;9.126;2023-04-03T14:17:49;7.30;;;2.03;;
842;SDS011;407;48.884;9.126;2023-04-03T14:20:18;5.97;;;1.50;;
842;SDS011;407;48.884;9.126;2023-04-03T14:22:46;5.75;;;1.42;;
842;SDS011;407;48.884;9.126;2023-04-03T14:25:13;7.43;;;1.70;;
842;SDS011;407;48.884;9.126;2023-04-03T14:27:41;7.10;;;1.52;;
842;SDS011;407;48.884;9.126;2023-04-03T14:30:12;8.93;;;1.70;;
842;SDS011;407;48.884;9.126;2023-04-03T14:32:47;6.47;;;1.80;;
842;SDS011;407;48.884;9.126;2023-04-03T14:35:13;7.10;;;1.90;;
842;SDS011;407;48.884;9.126;2023-04-03T14:37:41;6.53;;;2.08;;
842;SDS011;407;48.884;9.126;2023-04-03T14:40:08;6.65;;;1.60;;
842;SDS011;407;48.884;9.126;2023-04-03T14:42:35;5.72;;;1.70;;
842;SDS011;407;48.884;9.126;2023-04-03T14:45:03;6.53;;;1.88;;
842;SDS011;407;48.884;9.126;2023-04-03T14:47:32;5.75;;;1.50;;
842;SDS011;407;48.884;9.126;2023-04-03T14:49:59;5.60;;;1.50;;
842;SDS011;407;48.884;9.126;2023-04-03T14:52:30;6.70;;;1.80;;
842;SDS011;407;48.884;9.126;2023-04-03T14:54:57;6.43;;;1.80;;
842;SDS011;407;48.884;9.126;2023-04-03T14:57:24;6.50;;;2.15;;
842;SDS011;407;48.884;9.126;2023-04-03T14:59:51;6.80;;;1.80;;
842;SDS011;407;48.884;9.126;2023-04-03T15:05:02;8.00;;;1.70;;
842;SDS011;407;48.884;9.126;2023-04-03T15:07:31;7.10;;;1.48;;
842;SDS011;407;48.884;9.126;2023-04-03T15:10:02;5.97;;;1.60;;
842;SDS011;407;48.884;9.126;2023-04-03T15:12:39;8.70;;;1.90;;
842;SDS011;407;48.884;9.126;2023-04-03T15:15:05;6.72;;;1.50;;
842;SDS011;407;48.884;9.126;2023-04-03T15:17:31;8.23;;;2.20;;
842;SDS011;407;48.884;9.126;2023-04-03T15:19:57;6.60;;;1.90;;
842;SDS011;407;48.884;9.126;2023-04-03T15:22:23;9.70;;;3.50;;
842;SDS011;407;48.884;9.126;2023-04-03T15:24:49;8.43;;;2.30;;
842;SDS011;407;48.884;9.126;2023-04-03T15:27:14;9.57;;;2.83;;
842;SDS011;407;48.884;9.126;2023-04-03T15:29:41;5.80;;;1.90;;
842;SDS011;407;48.884;9.126;2023-04-03T15:32:08;6.65;;;2.10;;
842;SDS011;407;48.884;9.126;2023-04-03T15:34:35;7.20;;;2.28;;
842;SDS011;407;48.884;9.126;2023-04-03T15:37:01;9.20;;;2.40;;
842;SDS011;407;48.884;9.126;2023-04-03T15:39:26;7.97;;;1.77;;
842;SDS011;407;48.884;9.126;2023-04-03T15:41:52;7.18;;;2.00;;
842;SDS011;407;48.884;9.126;2023-04-03T15:44:19;5.60;;;1.40;;
842;SDS011;407;48.884;9.126;2023-04-03T15:46:46;8.43;;;2.08;;
842;SDS011;407;48.884;9.126;2023-04-03T15:49:13;7.45;;;2.15;;
842;SDS011;407;48.884;9.126;2023-04-03T15:51:39;7.90;;;2.10;;
842;SDS011;407;48.884;9.126;2023-04-03T15:54:05;10.20;;;2.80;;
842;SDS011;407;48.884;9.126;2023-04-03T15:56:31;8.80;;;2.28;;
842;SDS011;407;48.884;9.126;2023-04-03T15:58:56;5.80;;;1.83;;
842;SDS011;407;48.884;9.126;2023-04-03T16:01:22;9.13;;;2.30;;
842;SDS011;407;48.884;9.126;2023-04-03T16:03:50;6.68;;;1.73;;
842;SDS011;407;48.884;9.126;2023-04-03T16:06:16;8.43;;;1.95;;
842;SDS011;407;48.884;9.126;2023-04-03T16:08:43;8.02;;;2.10;;
842;SDS011;407;48.884;9.126;2023-04-03T16:11:10;6.28;;;1.60;;
842;SDS011;407;48.884;9.126;2023-04-03T16:13:36;7.03;;;2.00;;
842;SDS011;407;48.884;9.126;2023-04-03T16:16:02;5.68;;;1.65;;
842;SDS011;407;48.884;9.126;2023-04-03T16:18:28;7.80;;;1.92;;
842;SDS011;407;48.884;9.126;2023-04-03T16:20:54;7.10;;;1.75;;
842;SDS011;407;48.884;9.126;2023-04-03T16:23:20;7.20;;;1.60;;
842;SDS011;407;48.884;9.126;2023-04-03T16:25:46;6.70;;;1.73;;
842;SDS011;407;48.884;9.126;2023-04-03T16:28:12;9.02;;;1.95;;
842;SDS011;407;48.884;9.126;2023-04-03T16:30:42;7.70;;;2.25;;
842;SDS011;407;48.884;9.126;2023-04-03T16:33:09;9.50;;;2.95;;
842;SDS011;407;48.884;9.126;2023-04-03T16:35:35;9.77;;;2.80;;
842;SDS011;407;48.884;9.126;2023-04-03T16:38:01;9.93;;;3.10;;
842;SDS011;407;48.884;9.126;2023-04-03T16:40:27;10.17;;;3.50;;
842;SDS011;407;48.884;9.126;2023-04-03T16:42:53;20.58;;;5.40;;
842;SDS011;407;48.884;9.126;2023-04-03T16:45:19;17.60;;;4.40;;
842;SDS011;407;48.884;9.126;2023-04-03T16:47:45;10.65;;;2.90;;
842;SDS011;407;48.884;9.126;2023-04-03T16:50:11;10.75;;;2.60;;
842;SDS011;407;48.884;9.126;2023-04-03T16:52:37;17.98;;;5.10;;
842;SDS011;407;48.884;9.126;2023-04-03T16:55:03;15.13;;;4.93;;
842;SDS011;407;48.884;9.126;2023-04-03T16:57:29;10.50;;;3.00;;
842;SDS011;407;48.884;9.126;2023-04-03T16:59:55;12.98;;;3.70;;
842;SDS011;407;48.884;9.126;2023-04-03T17:02:21;9.00;;;2.97;;
842;SDS011;407;48.884;9.126;2023-04-03T17:04:51;8.70;;;2.60;;
842;SDS011;407;48.884;9.126;2023-04-03T17:07:21;9.23;;;2.45;;
842;SDS011;407;48.884;9.126;2023-04-03T17:09:48;7.05;;;1.90;;
842;SDS011;407;48.884;9.126;2023-04-03T17:12:14;8.20;;;1.98;;
842;SDS011;407;48.884;9.126;2023-04-03T17:14:40;6.72;;;2.00;;
842;SDS011;407;48.884;9.126;2023-04-03T17:17:06;6.40;;;1.80;;
842;SDS011;407;48.884;9.126;2023-04-03T17:19:32;7.15;;;2.00;;
842;SDS011;407;48.884;9.126;2023-04-03T17:21:59;7.87;;;2.47;;
842;SDS011;407;48.884;9.126;2023-04-03T17:24:25;8.05;;;2.10;;
842;SDS011;407;48.884;9.126;2023-04-03T17:26:51;7.30;;;1.90;;
842;SDS011;407;48.884;9.126;2023-04-03T17:29:17;6.97;;;2.00;;
842;SDS011;407;48.884;9.126;2023-04-03T17:31:43;7.60;;;2.10;;
842;SDS011;407;48.884;9.126;2023-04-03T17:34:08;6.87;;;2.47;;
842;SDS011;407;48.884;9.126;2023-04-03T17:36:36;9.20;;;2.60;;
842;SDS011;407;48.884;9.126;2023-04-03T17:39:02;7.18;;;1.85;;
842;SDS011;407;48.884;9.126;2023-04-03T17:41:28;6.50;;;2.05;;
842;SDS011;407;48.884;9.126;2023-04-03T17:43:54;7.20;;;1.70;;